sensor_id;sensor_type;location;lat;lon;timestamp;pressure;altitude;pressure_sealevel;temperature;humidity
84607;BME280;74838;47.984;7.842;2024-02-04T00:00:17;100004.34;;;7.62;83.98
84607;BME280;74838;47.984;7.842;2024-02-04T00:02:45;100011.28;;;7.63;84.24
84607;BME280;74838;47.984;7.842;2024-02-04T00:05:13;100011.47;;;7.61;84.20
84607;BME280;74838;47.984;7.842;2024-02-04T00:07:41;100002.72;;;7.61;84.06
84607;BME280;74838;47.984;7.842;2024-02-04T00:10:08;99998.44;;;7.60;84.38
84607;BME280;74838;47.984;7.842;2024-02-04T00:12:37;99989.09;;;7.64;84.13
84607;BME280;74838;47.984;7.842;2024-02-04T00:15:04;99975.66;;;7.59;83.92
84607;BME280;74838;47.984;7.842;2024-02-04T00:17:31;99953.94;;;7.70;83.77
84607;BME280;74838;47.984;7.842;2024-02-04T00:20:03;99952.94;;;7.71;83.78
84607;BME280;74838;47.984;7.842;2024-02-04T00:22:31;99941.47;;;7.64;84.00
84607;BME280;74838;47.984;7.842;2024-02-04T00:25:01;99949.81;;;7.61;83.99
84607;BME280;74838;47.984;7.842;2024-02-04T00:27:32;99948.78;;;7.62;83.76
84607;BME280;74838;47.984;7.842;2024-02-04T00:30:02;99947.75;;;7.56;84.00
84607;BME280;74838;47.984;7.842;2024-02-04T00:32:28;99939.78;;;7.50;83.89
84607;BME280;74838;47.984;7.842;2024-02-04T00:34:57;99932.88;;;7.49;84.38
84607;BME280;74838;47.984;7.842;2024-02-04T00:37:25;99931.47;;;7.53;84.16
84607;BME280;74838;47.984;7.842;2024-02-04T00:39:54;99911.91;;;7.47;84.07
84607;BME280;74838;47.984;7.842;2024-02-04T00:42:21;99929.28;;;7.63;83.52
84607;BME280;74838;47.984;7.842;2024-02-04T00:44:47;99928.66;;;7.61;83.78
84607;BME280;74838;47.984;7.842;2024-02-04T00:47:14;99909.75;;;7.64;83.33
84607;BME280;74838;47.984;7.842;2024-02-04T00:49:40;99911.78;;;7.62;83.19
84607;BME280;74838;47.984;7.842;2024-02-04T00:52:07;99904.44;;;7.64;83.54
84607;BME280;74838;47.984;7.842;2024-02-04T00:54:38;99895.09;;;7.61;82.97
84607;BME280;74838;47.984;7.842;2024-02-04T00:57:04;99903.22;;;7.60;83.28
84607;BME280;74838;47.984;7.842;2024-02-04T00:59:33;99890.59;;;7.62;83.37
84607;BME280;74838;47.984;7.842;2024-02-04T01:02:00;99904.63;;;7.56;83.61
84607;BME280;74838;47.984;7.842;2024-02-04T01:04:26;99916.44;;;7.60;83.70
84607;BME280;74838;47.984;7.842;2024-02-04T01:06:54;99912.59;;;7.62;83.49
84607;BME280;74838;47.984;7.842;2024-02-04T01:09:20;99893.06;;;7.63;83.86
84607;BME280;74838;47.984;7.842;2024-02-04T01:11:53;99875.34;;;7.64;83.14
84607;BME280;74838;47.984;7.842;2024-02-04T01:14:20;99870.72;;;7.66;83.00
84607;BME280;74838;47.984;7.842;2024-02-04T01:16:46;99871.53;;;7.73;82.82
84607;BME280;74838;47.984;7.842;2024-02-04T01:19:13;99873.56;;;7.71;82.82
84607;BME280;74838;47.984;7.842;2024-02-04T01:21:40;99877.84;;;7.72;82.79
84607;BME280;74838;47.984;7.842;2024-02-04T01:24:09;99863.00;;;7.71;82.36
84607;BME280;74838;47.984;7.842;2024-02-04T01:26:35;99866.88;;;7.75;82.37
84607;BME280;74838;47.984;7.842;2024-02-04T01:29:03;99865.00;;;7.69;82.63
84607;BME280;74838;47.984;7.842;2024-02-04T01:31:30;99867.66;;;7.69;83.24
84607;BME280;74838;47.984;7.842;2024-02-04T01:33:58;99869.09;;;7.71;83.09
84607;BME280;74838;47.984;7.842;2024-02-04T01:36:25;99871.53;;;7.73;82.30
84607;BME280;74838;47.984;7.842;2024-02-04T01:38:51;99882.13;;;7.73;82.12
84607;BME280;74838;47.984;7.842;2024-02-04T01:41:18;99878.03;;;7.70;82.35
84607;BME280;74838;47.984;7.842;2024-02-04T01:43:45;99888.66;;;7.77;81.96
84607;BME280;74838;47.984;7.842;2024-02-04T01:46:13;99901.25;;;7.75;81.92
84607;BME280;74838;47.984;7.842;2024-02-04T01:48:40;99900.03;;;7.77;82.69
84607;BME280;74838;47.984;7.842;2024-02-04T01:51:06;99906.16;;;7.78;81.91
84607;BME280;74838;47.984;7.842;2024-02-04T01:53:34;99905.59;;;7.88;81.74
84607;BME280;74838;47.984;7.842;2024-02-04T01:56:03;99890.72;;;7.87;81.83
84607;BME280;74838;47.984;7.842;2024-02-04T01:58:30;99883.97;;;7.79;81.99
84607;BME280;74838;47.984;7.842;2024-02-04T02:00:59;99892.94;;;7.78;82.43
84607;BME280;74838;47.984;7.842;2024-02-04T02:03:28;99899.44;;;7.82;82.71
84607;BME280;74838;47.984;7.842;2024-02-04T02:05:55;99901.50;;;7.80;83.02
84607;BME280;74838;47.984;7.842;2024-02-04T02:08:24;99896.81;;;7.82;83.07
84607;BME280;74838;47.984;7.842;2024-02-04T02:10:56;99892.28;;;7.76;82.84
84607;BME280;74838;47.984;7.842;2024-02-04T02:13:31;99900.22;;;7.76;83.05
84607;BME280;74838;47.984;7.842;2024-02-04T02:16:03;99908.16;;;7.76;82.85
84607;BME280;74838;47.984;7.842;2024-02-04T02:18:38;99913.03;;;7.72;83.07
84607;BME280;74838;47.984;7.842;2024-02-04T02:21:17;99903.47;;;7.71;83.31
84607;BME280;74838;47.984;7.842;2024-02-04T02:23:52;99886.16;;;7.69;83.63
84607;BME280;74838;47.984;7.842;2024-02-04T02:26:21;99879.22;;;7.61;83.31
84607;BME280;74838;47.984;7.842;2024-02-04T02:28:49;99875.16;;;7.59;83.99
84607;BME280;74838;47.984;7.842;2024-02-04T02:31:15;99872.28;;;7.54;84.07
84607;BME280;74838;47.984;7.842;2024-02-04T02:33:42;99874.28;;;7.52;84.23
84607;BME280;74838;47.984;7.842;2024-02-04T02:36:17;99875.09;;;7.46;84.20
84607;BME280;74838;47.984;7.842;2024-02-04T02:38:53;99880.75;;;7.43;84.00
84607;BME280;74838;47.984;7.842;2024-02-04T02:41:29;99880.75;;;7.43;84.34
84607;BME280;74838;47.984;7.842;2024-02-04T02:43:58;99889.31;;;7.45;85.04
84607;BME280;74838;47.984;7.842;2024-02-04T02:46:27;99897.22;;;7.45;84.53
84607;BME280;74838;47.984;7.842;2024-02-04T02:48:57;99905.53;;;7.36;84.71
84607;BME280;74838;47.984;7.842;2024-02-04T02:51:23;99902.28;;;7.40;84.88
84607;BME280;74838;47.984;7.842;2024-02-04T02:53:52;99897.00;;;7.40;84.80
84607;BME280;74838;47.984;7.842;2024-02-04T02:56:19;99903.31;;;7.39;84.85
84607;BME280;74838;47.984;7.842;2024-02-04T02:58:47;99903.94;;;7.41;84.89
84607;BME280;74838;47.984;7.842;2024-02-04T03:01:13;99902.72;;;7.43;84.81
84607;BME280;74838;47.984;7.842;2024-02-04T03:03:42;99907.19;;;7.43;85.06
84607;BME280;74838;47.984;7.842;2024-02-04T03:06:09;99910.22;;;7.40;84.76
84607;BME280;74838;47.984;7.842;2024-02-04T03:08:36;99924.72;;;7.44;85.20
84607;BME280;74838;47.984;7.842;2024-02-04T03:11:03;99925.91;;;7.42;84.79
84607;BME280;74838;47.984;7.842;2024-02-04T03:13:29;99930.81;;;7.44;84.97
84607;BME280;74838;47.984;7.842;2024-02-04T03:15:58;99934.88;;;7.47;84.63
84607;BME280;74838;47.984;7.842;2024-02-04T03:18:25;99935.28;;;7.44;84.69
84607;BME280;74838;47.984;7.842;2024-02-04T03:20:52;99932.88;;;7.49;85.18
84607;BME280;74838;47.984;7.842;2024-02-04T03:23:18;99939.81;;;7.56;84.28
84607;BME280;74838;47.984;7.842;2024-02-04T03:25:45;99944.31;;;7.56;84.28
84607;BME280;74838;47.984;7.842;2024-02-04T03:28:12;99944.31;;;7.56;84.56
84607;BME280;74838;47.984;7.842;2024-02-04T03:30:38;99942.88;;;7.60;84.19
84607;BME280;74838;47.984;7.842;2024-02-04T03:33:07;99944.72;;;7.59;84.45
84607;BME280;74838;47.984;7.842;2024-02-04T03:35:36;99948.56;;;7.57;84.49
84607;BME280;74838;47.984;7.842;2024-02-04T03:38:03;99958.16;;;7.58;84.23
84607;BME280;74838;47.984;7.842;2024-02-04T03:40:30;99960.16;;;7.56;83.84
84607;BME280;74838;47.984;7.842;2024-02-04T03:42:56;99965.84;;;7.53;84.28
84607;BME280;74838;47.984;7.842;2024-02-04T03:45:23;99968.28;;;7.54;84.21
84607;BME280;74838;47.984;7.842;2024-02-04T03:47:49;99922.34;;;7.28;83.94
84607;BME280;74838;47.984;7.842;2024-02-04T03:50:17;99962.44;;;7.59;84.15
84607;BME280;74838;47.984;7.842;2024-02-04T03:52:46;99958.34;;;7.56;84.09
84607;BME280;74838;47.984;7.842;2024-02-04T03:55:15;99948.78;;;7.62;83.88
84607;BME280;74838;47.984;7.842;2024-02-04T03:57:42;99945.72;;;7.58;83.65
84607;BME280;74838;47.984;7.842;2024-02-04T04:00:09;99937.59;;;7.60;83.96
84607;BME280;74838;47.984;7.842;2024-02-04T04:02:39;99933.34;;;7.65;83.38
84607;BME280;74838;47.984;7.842;2024-02-04T04:05:10;99939.25;;;7.67;83.28
84607;BME280;74838;47.984;7.842;2024-02-04T04:07:39;99946.38;;;7.67;83.08
84607;BME280;74838;47.984;7.842;2024-02-04T04:10:06;99925.19;;;7.54;83.57
84607;BME280;74838;47.984;7.842;2024-02-04T04:12:33;99923.59;;;7.66;83.72
84607;BME280;74838;47.984;7.842;2024-02-04T04:15:00;99919.56;;;7.70;83.99
84607;BME280;74838;47.984;7.842;2024-02-04T04:17:28;99905.44;;;7.56;83.45
84607;BME280;74838;47.984;7.842;2024-02-04T04:19:55;99913.41;;;7.63;83.27
84607;BME280;74838;47.984;7.842;2024-02-04T04:22:22;99906.28;;;7.63;83.44
84607;BME280;74838;47.984;7.842;2024-02-04T04:24:49;99905.66;;;7.61;83.58
84607;BME280;74838;47.984;7.842;2024-02-04T04:27:16;99904.88;;;7.61;83.65
84607;BME280;74838;47.984;7.842;2024-02-04T04:29:45;99904.88;;;7.61;83.94
84607;BME280;74838;47.984;7.842;2024-02-04T04:32:12;99889.00;;;7.61;83.89
84607;BME280;74838;47.984;7.842;2024-02-04T04:34:41;99889.81;;;7.61;84.26
84607;BME280;74838;47.984;7.842;2024-02-04T04:37:10;99892.25;;;7.63;84.20
84607;BME280;74838;47.984;7.842;2024-02-04T04:39:39;99895.09;;;7.61;84.58
84607;BME280;74838;47.984;7.842;2024-02-04T04:42:07;99894.91;;;7.63;84.34
84607;BME280;74838;47.984;7.842;2024-02-04T04:44:36;99905.91;;;7.66;83.95
84607;BME280;74838;47.984;7.842;2024-02-04T04:47:02;99894.91;;;7.63;83.79
84607;BME280;74838;47.984;7.842;2024-02-04T04:49:29;99900.56;;;7.60;83.65
84607;BME280;74838;47.984;7.842;2024-02-04T04:51:58;99899.56;;;7.61;84.04
84607;BME280;74838;47.984;7.842;2024-02-04T04:54:25;99896.75;;;7.62;83.81
84607;BME280;74838;47.984;7.842;2024-02-04T04:56:55;99897.16;;;7.66;83.88
84607;BME280;74838;47.984;7.842;2024-02-04T04:59:26;99905.47;;;7.63;83.96
84607;BME280;74838;47.984;7.842;2024-02-04T05:01:52;99902.84;;;7.63;83.70
84607;BME280;74838;47.984;7.842;2024-02-04T05:04:19;99904.03;;;7.60;84.27
84607;BME280;74838;47.984;7.842;2024-02-04T05:06:48;99901.59;;;7.59;84.64
84607;BME280;74838;47.984;7.842;2024-02-04T05:09:15;99902.22;;;7.61;84.20
84607;BME280;74838;47.984;7.842;2024-02-04T05:11:42;99908.13;;;7.63;84.10
84607;BME280;74838;47.984;7.842;2024-02-04T05:14:09;99902.03;;;7.62;84.16
84607;BME280;74838;47.984;7.842;2024-02-04T05:16:36;99898.78;;;7.67;83.75
84607;BME280;74838;47.984;7.842;2024-02-04T05:19:06;99898.97;;;7.65;84.24
84607;BME280;74838;47.984;7.842;2024-02-04T05:21:32;99897.16;;;7.66;84.32
84607;BME280;74838;47.984;7.842;2024-02-04T05:23:59;99874.53;;;7.63;84.10
84607;BME280;74838;47.984;7.842;2024-02-04T05:26:25;99870.72;;;7.66;83.73
84607;BME280;74838;47.984;7.842;2024-02-04T05:28:52;99875.16;;;7.59;83.66
84607;BME280;74838;47.984;7.842;2024-02-04T05:31:19;99856.19;;;7.49;83.86
84607;BME280;74838;47.984;7.842;2024-02-04T05:33:47;99875.34;;;7.57;83.70
84607;BME280;74838;47.984;7.842;2024-02-04T05:36:13;99855.53;;;7.47;84.48
84607;BME280;74838;47.984;7.842;2024-02-04T05:38:43;99873.13;;;7.61;89.28
84607;BME280;74838;47.984;7.842;2024-02-04T05:41:10;99874.13;;;7.60;86.93
84607;BME280;74838;47.984;7.842;2024-02-04T05:43:36;99865.56;;;7.58;87.59
84607;BME280;74838;47.984;7.842;2024-02-04T05:46:03;99878.00;;;7.64;90.68
84607;BME280;74838;47.984;7.842;2024-02-04T05:48:30;99874.69;;;7.55;85.07
84607;BME280;74838;47.984;7.842;2024-02-04T05:50:59;99877.56;;;7.54;86.04
84607;BME280;74838;47.984;7.842;2024-02-04T05:53:26;99884.47;;;7.55;86.12
84607;BME280;74838;47.984;7.842;2024-02-04T05:55:52;99890.94;;;7.46;88.81
84607;BME280;74838;47.984;7.842;2024-02-04T05:58:19;99902.94;;;7.48;86.58
84607;BME280;74838;47.984;7.842;2024-02-04T06:00:45;99899.25;;;7.43;87.46
84607;BME280;74838;47.984;7.842;2024-02-04T06:03:12;99892.75;;;7.39;86.69
84607;BME280;74838;47.984;7.842;2024-02-04T06:05:39;99903.31;;;7.39;89.35
84607;BME280;74838;47.984;7.842;2024-02-04T06:08:07;99899.41;;;7.29;89.11
84607;BME280;74838;47.984;7.842;2024-02-04T06:10:34;99903.59;;;7.17;85.33
84607;BME280;74838;47.984;7.842;2024-02-04T06:13:03;99903.19;;;7.20;86.89
84607;BME280;74838;47.984;7.842;2024-02-04T06:15:30;99906.84;;;7.19;86.04
84607;BME280;74838;47.984;7.842;2024-02-04T06:17:56;99922.41;;;7.07;86.74
84607;BME280;74838;47.984;7.842;2024-02-04T06:20:23;99923.19;;;7.02;87.46
84607;BME280;74838;47.984;7.842;2024-02-04T06:22:50;99936.91;;;6.91;86.70
84607;BME280;74838;47.984;7.842;2024-02-04T06:25:18;99941.63;;;6.95;87.32
84607;BME280;74838;47.984;7.842;2024-02-04T06:27:44;99940.56;;;6.90;87.49
84607;BME280;74838;47.984;7.842;2024-02-04T06:30:12;99939.31;;;6.86;86.60
84607;BME280;74838;47.984;7.842;2024-02-04T06:32:38;99957.19;;;6.84;86.39
84607;BME280;74838;47.984;7.842;2024-02-04T06:35:06;99962.41;;;6.77;89.30
84607;BME280;74838;47.984;7.842;2024-02-04T06:37:35;99971.13;;;6.78;88.08
84607;BME280;74838;47.984;7.842;2024-02-04T06:40:01;99968.97;;;6.81;91.31
84607;BME280;74838;47.984;7.842;2024-02-04T06:42:29;99979.03;;;6.71;87.71
84607;BME280;74838;47.984;7.842;2024-02-04T06:44:56;99966.06;;;6.76;94.70
84607;BME280;74838;47.984;7.842;2024-02-04T06:47:23;99963.00;;;6.73;91.94
84607;BME280;74838;47.984;7.842;2024-02-04T06:49:49;99978.75;;;6.87;92.26
84607;BME280;74838;47.984;7.842;2024-02-04T06:52:16;99995.31;;;6.75;87.17
84607;BME280;74838;47.984;7.842;2024-02-04T06:54:44;99964.78;;;6.52;87.68
84607;BME280;74838;47.984;7.842;2024-02-04T06:57:10;99981.34;;;6.60;89.37
84607;BME280;74838;47.984;7.842;2024-02-04T06:59:41;99993.03;;;6.51;87.51
84607;BME280;74838;47.984;7.842;2024-02-04T07:02:09;99991.47;;;6.42;87.06
84607;BME280;74838;47.984;7.842;2024-02-04T07:04:36;99989.69;;;6.43;87.93
84607;BME280;74838;47.984;7.842;2024-02-04T07:07:03;99985.22;;;6.43;88.78
84607;BME280;74838;47.984;7.842;2024-02-04T07:09:30;99960.91;;;6.48;88.25
84607;BME280;74838;47.984;7.842;2024-02-04T07:11:56;99954.78;;;6.47;87.79
84607;BME280;74838;47.984;7.842;2024-02-04T07:14:23;99958.13;;;6.56;87.93
84607;BME280;74838;47.984;7.842;2024-02-04T07:16:51;99959.59;;;6.58;86.97
84607;BME280;74838;47.984;7.842;2024-02-04T07:19:17;99957.56;;;6.60;87.11
84607;BME280;74838;47.984;7.842;2024-02-04T07:21:44;99940.78;;;6.67;86.57
84607;BME280;74838;47.984;7.842;2024-02-04T07:24:11;99931.03;;;6.68;86.02
84607;BME280;74838;47.984;7.842;2024-02-04T07:26:40;99926.19;;;6.71;86.39
84607;BME280;74838;47.984;7.842;2024-02-04T07:29:06;99937.81;;;6.77;86.73
84607;BME280;74838;47.984;7.842;2024-02-04T07:31:33;99934.81;;;6.80;85.66
84607;BME280;74838;47.984;7.842;2024-02-04T07:34:04;99939.06;;;6.81;86.37
84607;BME280;74838;47.984;7.842;2024-02-04T07:36:33;99924.25;;;6.80;85.72
84607;BME280;74838;47.984;7.842;2024-02-04T07:39:00;99932.41;;;6.85;86.26
84607;BME280;74838;47.984;7.842;2024-02-04T07:41:29;99929.13;;;6.83;85.99
84607;BME280;74838;47.984;7.842;2024-02-04T07:43:55;99938.69;;;6.84;86.04
84607;BME280;74838;47.984;7.842;2024-02-04T07:46:22;99932.78;;;6.82;86.05
84607;BME280;74838;47.984;7.842;2024-02-04T07:48:51;99932.78;;;6.82;85.72
84607;BME280;74838;47.984;7.842;2024-02-04T07:51:19;99911.66;;;6.82;85.53
84607;BME280;74838;47.984;7.842;2024-02-04T07:53:49;99903.13;;;6.80;85.59
84607;BME280;74838;47.984;7.842;2024-02-04T07:56:15;99913.28;;;6.83;85.44
84607;BME280;74838;47.984;7.842;2024-02-04T07:58:44;99913.28;;;6.83;86.46
84607;BME280;74838;47.984;7.842;2024-02-04T08:01:11;99909.00;;;6.82;87.70
84607;BME280;74838;47.984;7.842;2024-02-04T08:03:38;99907.25;;;6.89;87.99
84607;BME280;74838;47.984;7.842;2024-02-04T08:06:05;99896.28;;;6.92;88.33
84607;BME280;74838;47.984;7.842;2024-02-04T08:08:33;99895.88;;;6.95;87.39
84607;BME280;74838;47.984;7.842;2024-02-04T08:11:00;99887.78;;;6.96;85.16
84607;BME280;74838;47.984;7.842;2024-02-04T08:13:28;99885.19;;;7.02;85.19
84607;BME280;74838;47.984;7.842;2024-02-04T08:15:55;99877.88;;;7.04;84.29
84607;BME280;74838;47.984;7.842;2024-02-04T08:18:24;99891.69;;;7.06;83.98
84607;BME280;74838;47.984;7.842;2024-02-04T08:20:50;99889.91;;;7.07;83.97
84607;BME280;74838;47.984;7.842;2024-02-04T08:23:18;99893.59;;;7.12;83.81
84607;BME280;74838;47.984;7.842;2024-02-04T08:25:46;99899.91;;;7.18;84.05
84607;BME280;74838;47.984;7.842;2024-02-04T08:28:13;99916.03;;;7.23;83.50
84607;BME280;74838;47.984;7.842;2024-02-04T08:30:39;99895.66;;;7.17;84.64
84607;BME280;74838;47.984;7.842;2024-02-04T08:33:06;99918.94;;;7.34;83.88
84607;BME280;74838;47.984;7.842;2024-02-04T08:35:36;99929.38;;;7.42;83.09
84607;BME280;74838;47.984;7.842;2024-02-04T08:38:03;99925.13;;;7.47;83.42
84607;BME280;74838;47.984;7.842;2024-02-04T08:40:30;99930.84;;;7.51;82.66
84607;BME280;74838;47.984;7.842;2024-02-04T08:42:58;99919.91;;;7.60;82.43
84607;BME280;74838;47.984;7.842;2024-02-04T08:45:24;99917.91;;;7.69;82.59
84607;BME280;74838;47.984;7.842;2024-02-04T08:47:53;99906.56;;;7.75;81.75
84607;BME280;74838;47.984;7.842;2024-02-04T08:50:19;99897.41;;;7.83;81.36
84607;BME280;74838;47.984;7.842;2024-02-04T08:52:48;99888.72;;;7.89;82.38
84607;BME280;74838;47.984;7.842;2024-02-04T08:55:15;99887.53;;;8.05;82.71
84607;BME280;74838;47.984;7.842;2024-02-04T08:57:41;99885.56;;;8.13;80.13
84607;BME280;74838;47.984;7.842;2024-02-04T09:00:11;99887.19;;;8.21;80.83
84607;BME280;74838;47.984;7.842;2024-02-04T09:02:38;99882.72;;;8.27;79.85
84607;BME280;74838;47.984;7.842;2024-02-04T09:05:05;99881.50;;;8.30;80.25
84607;BME280;74838;47.984;7.842;2024-02-04T09:07:32;99886.81;;;8.30;80.53
84607;BME280;74838;47.984;7.842;2024-02-04T09:09:58;99885.38;;;8.27;80.39
84607;BME280;74838;47.984;7.842;2024-02-04T09:12:25;99893.31;;;8.34;79.67
84607;BME280;74838;47.984;7.842;2024-02-04T09:14:52;99902.50;;;8.38;79.04
84607;BME280;74838;47.984;7.842;2024-02-04T09:17:20;99897.41;;;8.43;78.19
84607;BME280;74838;47.984;7.842;2024-02-04T09:19:47;99888.25;;;8.45;78.84
84607;BME280;74838;47.984;7.842;2024-02-04T09:22:14;99882.56;;;8.48;81.14
84607;BME280;74838;47.984;7.842;2024-02-04T09:24:42;99886.84;;;8.56;78.65
84607;BME280;74838;47.984;7.842;2024-02-04T09:27:08;99882.16;;;8.70;77.11
84607;BME280;74838;47.984;7.842;2024-02-04T09:29:35;99879.09;;;8.73;78.33
84607;BME280;74838;47.984;7.842;2024-02-04T09:32:05;99875.03;;;8.77;77.52
84607;BME280;74838;47.984;7.842;2024-02-04T09:34:33;99861.38;;;8.80;78.45
84607;BME280;74838;47.984;7.842;2024-02-04T09:36:59;99850.34;;;8.83;77.40
84607;BME280;74838;47.984;7.842;2024-02-04T09:39:28;99846.88;;;8.89;80.45
84607;BME280;74838;47.984;7.842;2024-02-04T09:41:55;99821.19;;;8.83;78.87
84607;BME280;74838;47.984;7.842;2024-02-04T09:44:22;99853.00;;;9.03;77.99
84607;BME280;74838;47.984;7.842;2024-02-04T09:46:49;99854.00;;;9.08;77.46
84607;BME280;74838;47.984;7.842;2024-02-04T09:49:16;99838.69;;;9.10;77.53
84607;BME280;74838;47.984;7.842;2024-02-04T09:51:44;99842.13;;;9.17;76.42
84607;BME280;74838;47.984;7.842;2024-02-04T09:54:11;99833.78;;;9.20;74.75
84607;BME280;74838;47.984;7.842;2024-02-04T09:56:38;99833.75;;;9.33;74.88
84607;BME280;74838;47.984;7.842;2024-02-04T09:59:04;99837.59;;;9.37;75.05
84607;BME280;74838;47.984;7.842;2024-02-04T10:01:32;99850.19;;;9.48;74.74
84607;BME280;74838;47.984;7.842;2024-02-04T10:03:58;99842.22;;;9.54;74.79
84607;BME280;74838;47.984;7.842;2024-02-04T10:06:25;99832.06;;;9.45;74.07
84607;BME280;74838;47.984;7.842;2024-02-04T10:08:53;99849.56;;;9.58;75.23
84607;BME280;74838;47.984;7.842;2024-02-04T10:11:20;99852.00;;;9.60;73.59
84607;BME280;74838;47.984;7.842;2024-02-04T10:13:49;99853.25;;;9.51;74.94
84607;BME280;74838;47.984;7.842;2024-02-04T10:16:16;99849.19;;;9.55;74.86
84607;BME280;74838;47.984;7.842;2024-02-04T10:18:44;99867.94;;;9.53;73.74
84607;BME280;74838;47.984;7.842;2024-02-04T10:21:17;99877.78;;;9.47;74.04
84607;BME280;74838;47.984;7.842;2024-02-04T10:23:44;99894.31;;;9.36;74.54
84607;BME280;74838;47.984;7.842;2024-02-04T10:26:13;99896.78;;;9.31;75.08
84607;BME280;74838;47.984;7.842;2024-02-04T10:28:39;99889.25;;;9.34;75.04
84607;BME280;74838;47.984;7.842;2024-02-04T10:31:08;99886.34;;;9.36;75.35
84607;BME280;74838;47.984;7.842;2024-02-04T10:33:38;99888.81;;;9.37;75.27
84607;BME280;74838;47.984;7.842;2024-02-04T10:36:05;99888.00;;;9.37;75.20
84607;BME280;74838;47.984;7.842;2024-02-04T10:38:33;99878.19;;;9.37;75.72
84607;BME280;74838;47.984;7.842;2024-02-04T10:41:00;99877.81;;;9.34;75.03
84607;BME280;74838;47.984;7.842;2024-02-04T10:43:31;99880.03;;;9.37;75.64
84607;BME280;74838;47.984;7.842;2024-02-04T10:46:03;99864.91;;;9.44;75.29
84607;BME280;74838;47.984;7.842;2024-02-04T10:48:34;99860.41;;;9.50;75.52
84607;BME280;74838;47.984;7.842;2024-02-04T10:51:12;99851.03;;;9.54;75.14
84607;BME280;74838;47.984;7.842;2024-02-04T10:53:41;99822.88;;;9.47;75.01
84607;BME280;74838;47.984;7.842;2024-02-04T10:56:14;99844.16;;;9.78;74.68
84607;BME280;74838;47.984;7.842;2024-02-04T10:58:47;99842.06;;;9.86;74.25
84607;BME280;74838;47.984;7.842;2024-02-04T11:01:14;99832.91;;;9.95;73.86
84607;BME280;74838;47.984;7.842;2024-02-04T11:03:41;99836.13;;;10.03;72.93
84607;BME280;74838;47.984;7.842;2024-02-04T11:06:10;99837.09;;;10.09;72.42
84607;BME280;74838;47.984;7.842;2024-02-04T11:08:38;99825.19;;;10.18;72.40
84607;BME280;74838;47.984;7.842;2024-02-04T11:11:07;99807.78;;;10.22;72.25
84607;BME280;74838;47.984;7.842;2024-02-04T11:13:36;99810.78;;;10.32;72.53
84607;BME280;74838;47.984;7.842;2024-02-04T11:16:09;99810.78;;;10.32;72.15
84607;BME280;74838;47.984;7.842;2024-02-04T11:19:08;99811.53;;;10.38;72.53
84607;BME280;74838;47.984;7.842;2024-02-04T11:22:01;99782.69;;;10.18;71.72
84607;BME280;74838;47.984;7.842;2024-02-04T11:24:52;99808.97;;;10.56;71.20
84607;BME280;74838;47.984;7.842;2024-02-04T11:27:21;99814.44;;;10.61;70.84
84607;BME280;74838;47.984;7.842;2024-02-04T11:29:48;99813.53;;;10.67;71.12
84607;BME280;74838;47.984;7.842;2024-02-04T11:32:16;99815.13;;;10.75;70.56
84607;BME280;74838;47.984;7.842;2024-02-04T11:34:43;99805.47;;;10.80;70.69
84607;BME280;74838;47.984;7.842;2024-02-04T11:37:15;99798.88;;;10.82;70.88
84607;BME280;74838;47.984;7.842;2024-02-04T11:39:48;99808.91;;;11.05;70.27
84607;BME280;74838;47.984;7.842;2024-02-04T11:42:15;99808.75;;;11.00;69.50
84607;BME280;74838;47.984;7.842;2024-02-04T11:44:44;99821.97;;;11.06;69.12
84607;BME280;74838;47.984;7.842;2024-02-04T11:47:11;99803.66;;;10.98;69.06
84607;BME280;74838;47.984;7.842;2024-02-04T11:49:39;99807.72;;;11.01;69.36
84607;BME280;74838;47.984;7.842;2024-02-04T11:52:06;99812.97;;;11.07;69.26
84607;BME280;74838;47.984;7.842;2024-02-04T11:54:33;99814.22;;;11.05;69.16
84607;BME280;74838;47.984;7.842;2024-02-04T11:57:00;99803.22;;;11.01;68.79
84607;BME280;74838;47.984;7.842;2024-02-04T11:59:27;99787.31;;;10.95;69.56
84607;BME280;74838;47.984;7.842;2024-02-04T12:01:54;99802.38;;;11.01;69.94
84607;BME280;74838;47.984;7.842;2024-02-04T12:04:22;99801.59;;;11.00;69.31
84607;BME280;74838;47.984;7.842;2024-02-04T12:06:49;99802.81;;;10.98;69.87
84607;BME280;74838;47.984;7.842;2024-02-04T12:09:17;99795.47;;;11.00;69.96
84607;BME280;74838;47.984;7.842;2024-02-04T12:11:44;99790.03;;;11.06;70.58
84607;BME280;74838;47.984;7.842;2024-02-04T12:14:11;99779.50;;;11.00;71.10
84607;BME280;74838;47.984;7.842;2024-02-04T12:16:40;99774.25;;;10.93;70.97
84607;BME280;74838;47.984;7.842;2024-02-04T12:19:06;99772.97;;;10.96;71.14
84607;BME280;74838;47.984;7.842;2024-02-04T12:21:33;99780.38;;;10.94;71.19
84607;BME280;74838;47.984;7.842;2024-02-04T12:24:06;99766.69;;;10.90;71.14
84607;BME280;74838;47.984;7.842;2024-02-04T12:26:33;99770.53;;;10.94;71.69
84607;BME280;74838;47.984;7.842;2024-02-04T12:29:00;99772.69;;;11.04;70.82
84607;BME280;74838;47.984;7.842;2024-02-04T12:31:28;99771.31;;;11.01;70.89
84607;BME280;74838;47.984;7.842;2024-02-04T12:34:00;99763.44;;;11.06;70.64
84607;BME280;74838;47.984;7.842;2024-02-04T12:36:27;99733.81;;;11.03;70.74
84607;BME280;74838;47.984;7.842;2024-02-04T12:38:55;99753.56;;;11.13;71.07
84607;BME280;74838;47.984;7.842;2024-02-04T12:41:24;99748.63;;;11.17;71.49
84607;BME280;74838;47.984;7.842;2024-02-04T12:43:54;99740.84;;;11.15;69.94
84607;BME280;74838;47.984;7.842;2024-02-04T12:46:24;99747.84;;;11.27;70.01
84607;BME280;74838;47.984;7.842;2024-02-04T12:48:51;99743.56;;;11.26;69.74
84607;BME280;74838;47.984;7.842;2024-02-04T12:51:23;99746.53;;;11.18;70.28
84607;BME280;74838;47.984;7.842;2024-02-04T12:53:50;99737.78;;;11.29;69.61
84607;BME280;74838;47.984;7.842;2024-02-04T12:56:16;99742.91;;;11.31;70.18
84607;BME280;74838;47.984;7.842;2024-02-04T12:58:46;99735.34;;;11.28;70.31
84607;BME280;74838;47.984;7.842;2024-02-04T13:01:14;99723.53;;;11.24;70.65
84607;BME280;74838;47.984;7.842;2024-02-04T13:03:40;99730.41;;;11.31;70.22
84607;BME280;74838;47.984;7.842;2024-02-04T13:06:09;99720.66;;;11.25;70.99
84607;BME280;74838;47.984;7.842;2024-02-04T13:08:36;99726.28;;;11.35;69.25
84607;BME280;74838;47.984;7.842;2024-02-04T13:11:04;99722.66;;;11.30;70.04
84607;BME280;74838;47.984;7.842;2024-02-04T13:13:31;99720.50;;;11.38;70.03